createdAt,value
2022-09-29T00:01:06.312Z,7.47
2022-09-29T00:03:33.096Z,7.44
2022-09-29T00:06:01.418Z,7.44
2022-09-29T00:08:30.554Z,7.61
2022-09-29T00:10:57.723Z,7.73
2022-09-29T00:13:24.664Z,7.74
2022-09-29T00:15:58.699Z,7.54
2022-09-29T00:18:26.063Z,7.56
2022-09-29T00:20:59.514Z,7.78
2022-09-29T00:23:28.150Z,7.78
2022-09-29T00:26:07.044Z,7.73
2022-09-29T00:28:34.819Z,7.50
2022-09-29T00:31:03.248Z,7.02
2022-09-29T00:33:30.909Z,6.41
2022-09-29T00:36:02.810Z,7.77
2022-09-29T00:38:32.040Z,6.62
2022-09-29T00:40:59.418Z,6.49
2022-09-29T00:43:50.536Z,6.57
2022-09-29T00:46:20.676Z,7.11
2022-09-29T00:48:48.210Z,6.59
2022-09-29T00:51:15.819Z,7.16
2022-09-29T00:53:44.505Z,6.45
2022-09-29T00:56:14.345Z,7.41
2022-09-29T00:58:44.928Z,7.16
2022-09-29T01:01:13.289Z,6.75
2022-09-29T01:03:48.838Z,6.95
2022-09-29T01:06:20.313Z,6.55
2022-09-29T01:08:51.153Z,7.63
2022-09-29T01:11:20.299Z,7.66
2022-09-29T01:13:50.679Z,6.54
2022-09-29T01:16:17.255Z,7.26
2022-09-29T01:18:45.723Z,7.67
2022-09-29T01:21:20.467Z,7.60
2022-09-29T01:24:18.658Z,7.65
2022-09-29T01:27:04.951Z,7.57
2022-09-29T01:29:55.119Z,7.45
2022-09-29T01:32:41.648Z,7.61
2022-09-29T01:35:16.875Z,7.61
2022-09-29T01:37:57.886Z,7.29
2022-09-29T01:40:31.138Z,6.29
2022-09-29T01:43:04.475Z,7.24
2022-09-29T01:45:34.778Z,6.97
2022-09-29T01:48:08.974Z,7.54
2022-09-29T01:50:39.513Z,7.47
2022-09-29T01:53:11.349Z,7.50
2022-09-29T01:56:07.100Z,7.46
2022-09-29T01:58:46.508Z,6.24
2022-09-29T02:01:21.431Z,6.56
2022-09-29T02:04:07.414Z,6.17
2022-09-29T02:06:40.982Z,6.90
2022-09-29T02:09:13.024Z,6.67
2022-09-29T02:11:52.840Z,6.95
2022-09-29T02:14:24.848Z,6.88
2022-09-29T02:17:00.276Z,6.72
2022-09-29T02:19:31.797Z,6.58
2022-09-29T02:21:58.580Z,7.27
2022-09-29T02:24:32.968Z,6.58
2022-09-29T02:27:01.421Z,6.77
2022-09-29T02:29:32.883Z,6.46
2022-09-29T02:32:00.076Z,7.19
2022-09-29T02:34:30.760Z,5.87
2022-09-29T02:37:11.782Z,6.70
2022-09-29T02:39:48.789Z,6.68
2022-09-29T02:42:28.170Z,7.12
2022-09-29T02:45:21.730Z,6.11
2022-09-29T02:48:15.444Z,5.79
2022-09-29T02:50:57.036Z,6.55
2022-09-29T02:53:32.581Z,6.92
2022-09-29T02:56:09.309Z,6.27
2022-09-29T02:58:50.301Z,5.69
2022-09-29T03:01:20.786Z,6.54
2022-09-29T03:03:49.579Z,5.97
2022-09-29T03:06:20.277Z,5.68
2022-09-29T03:08:48.637Z,6.34
2022-09-29T03:11:16.393Z,6.58
2022-09-29T03:13:43.427Z,6.82
2022-09-29T03:16:15.036Z,6.13
2022-09-29T03:18:42.588Z,6.37
2022-09-29T03:21:12.200Z,5.67
2022-09-29T03:23:41.288Z,6.82
2022-09-29T03:26:08.077Z,5.99
2022-09-29T03:28:36.609Z,6.72
2022-09-29T03:31:07.555Z,5.72
2022-09-29T03:33:34.599Z,6.59
2022-09-29T03:36:01.844Z,6.63
2022-09-29T03:38:28.653Z,6.73
2022-09-29T03:40:57.234Z,6.22
2022-09-29T03:43:25.519Z,6.10
2022-09-29T03:45:54.109Z,5.62
2022-09-29T03:48:24.286Z,5.99
2022-09-29T03:50:52.332Z,5.63
2022-09-29T03:53:19.881Z,6.58
2022-09-29T03:55:49.822Z,5.76
2022-09-29T03:58:18.958Z,6.19
2022-09-29T04:00:49.814Z,6.45
2022-09-29T04:03:17.217Z,5.28
2022-09-29T04:05:45.154Z,6.54
2022-09-29T04:08:12.907Z,5.15
2022-09-29T04:10:40.277Z,6.27
2022-09-29T04:13:08.323Z,6.38
2022-09-29T04:15:36.405Z,6.39
2022-09-29T04:18:06.033Z,6.46
2022-09-29T04:20:33.559Z,5.99
2022-09-29T04:23:00.821Z,6.04
2022-09-29T04:25:27.795Z,5.08
2022-09-29T04:27:54.953Z,6.44
2022-09-29T04:30:28.994Z,5.43
2022-09-29T04:33:03.043Z,5.40
2022-09-29T04:35:33.612Z,5.23
2022-09-29T04:38:05.304Z,5.47
2022-09-29T04:40:32.074Z,5.72
2022-09-29T04:42:58.906Z,6.47
2022-09-29T04:45:25.997Z,5.69
2022-09-29T04:47:52.808Z,6.21
2022-09-29T04:50:24.910Z,5.98
2022-09-29T04:52:51.822Z,6.36
2022-09-29T04:55:18.959Z,5.68
2022-09-29T04:57:45.942Z,5.25
2022-09-29T05:00:13.460Z,5.56
2022-09-29T05:02:47.626Z,5.10
2022-09-29T05:05:17.342Z,5.88
2022-09-29T05:07:48.350Z,5.28
2022-09-29T05:10:23.073Z,5.02
2022-09-29T05:12:53.088Z,5.45
2022-09-29T05:15:24.995Z,4.95
2022-09-29T05:17:55.783Z,6.32
2022-09-29T05:20:23.855Z,5.35
2022-09-29T05:22:52.167Z,5.62
2022-09-29T05:25:19.352Z,5.14
2022-09-29T05:27:47.470Z,6.33
2022-09-29T05:30:21.176Z,5.72
2022-09-29T05:32:50.060Z,5.78
2022-09-29T05:35:27.846Z,5.03
2022-09-29T05:37:56.109Z,5.80
2022-09-29T05:40:24.853Z,6.16
2022-09-29T05:43:03.959Z,6.08
2022-09-29T05:45:33.210Z,5.34
2022-09-29T05:48:03.928Z,6.06
2022-09-29T05:50:39.109Z,5.54
2022-09-29T05:53:11.093Z,6.37
2022-09-29T05:55:43.341Z,6.40
2022-09-29T05:58:13.968Z,5.89
2022-09-29T06:00:42.655Z,5.99
2022-09-29T06:03:09.715Z,5.95
2022-09-29T06:05:40.970Z,5.20
2022-09-29T06:08:18.601Z,6.23
2022-09-29T06:10:51.285Z,5.29
2022-09-29T06:13:18.069Z,6.55
2022-09-29T06:15:44.974Z,6.58
2022-09-29T06:18:12.111Z,5.78
2022-09-29T06:20:40.769Z,6.07
2022-09-29T06:23:08.519Z,5.70
2022-09-29T06:25:39.350Z,6.70
2022-09-29T06:28:06.149Z,5.90
2022-09-29T06:30:32.857Z,6.30
2022-09-29T06:33:00.092Z,6.76
2022-09-29T06:35:29.212Z,6.81
2022-09-29T06:37:55.955Z,6.33
2022-09-29T06:40:26.707Z,6.88
2022-09-29T06:42:55.280Z,6.16
2022-09-29T06:45:22.407Z,6.21
2022-09-29T06:47:49.593Z,5.97
2022-09-29T06:50:21.084Z,6.11
2022-09-29T06:52:59.107Z,7.08
2022-09-29T06:55:28.433Z,6.73
2022-09-29T06:58:09.208Z,7.16
2022-09-29T07:00:37.834Z,6.75
2022-09-29T07:03:08.637Z,7.16
2022-09-29T07:05:38.618Z,7.03
2022-09-29T07:08:21.779Z,6.54
2022-09-29T07:10:51.358Z,6.93
2022-09-29T07:13:33.999Z,7.03
2022-09-29T07:16:05.471Z,7.30
2022-09-29T07:18:32.418Z,7.53
2022-09-29T07:20:59.121Z,7.59
2022-09-29T07:23:27.539Z,6.75
2022-09-29T07:25:54.367Z,7.29
2022-09-29T07:28:50.808Z,7.84
2022-09-29T07:31:21.702Z,7.13
2022-09-29T07:34:09.077Z,7.97
2022-09-29T07:36:35.948Z,7.74
2022-09-29T07:39:02.682Z,7.38
2022-09-29T07:41:29.778Z,8.14
2022-09-29T07:43:58.093Z,7.28
2022-09-29T07:46:24.857Z,6.90
2022-09-29T07:48:52.943Z,7.17
2022-09-29T07:51:24.444Z,7.18
2022-09-29T07:53:50.912Z,8.41
2022-09-29T07:56:22.071Z,7.33
2022-09-29T07:58:50.932Z,8.48
2022-09-29T08:01:19.828Z,8.44
2022-09-29T08:03:53.843Z,8.21
2022-09-29T08:06:25.089Z,8.83
2022-09-29T08:09:02.845Z,8.46
2022-09-29T08:11:32.631Z,7.76
2022-09-29T08:14:05.352Z,8.35
2022-09-29T08:16:37.397Z,8.05
2022-09-29T08:19:05.637Z,8.14
2022-09-29T08:21:32.613Z,9.28
2022-09-29T08:23:59.545Z,9.21
2022-09-29T08:26:40.028Z,9.43
2022-09-29T08:29:13.233Z,9.24
2022-09-29T08:31:44.371Z,9.48
2022-09-29T08:34:21.133Z,9.39
2022-09-29T08:36:48.294Z,8.94
2022-09-29T08:39:17.449Z,9.44
2022-09-29T08:42:05.634Z,9.18
2022-09-29T08:44:39.458Z,9.23
2022-09-29T08:47:18.683Z,9.76
2022-09-29T08:49:48.792Z,9.46
2022-09-29T08:52:21.378Z,9.83
2022-09-29T08:54:52.893Z,9.39
2022-09-29T08:57:20.796Z,10.62
2022-09-29T09:00:20.327Z,10.70
2022-09-29T09:03:20.588Z,10.08
2022-09-29T09:06:11.049Z,10.50
2022-09-29T09:08:57.269Z,10.87
2022-09-29T09:11:39.692Z,10.68
2022-09-29T09:14:19.481Z,10.82
2022-09-29T09:17:09.088Z,11.38
2022-09-29T09:19:54.332Z,11.48
2022-09-29T09:22:22.899Z,11.58
2022-09-29T09:24:57.249Z,10.59
2022-09-29T09:27:27.230Z,11.73
2022-09-29T09:30:07.633Z,11.67
2022-09-29T09:32:40.794Z,11.51
2022-09-29T09:35:28.365Z,11.09
2022-09-29T09:38:02.413Z,11.12
2022-09-29T09:40:52.901Z,11.28
2022-09-29T09:43:48.997Z,12.28
2022-09-29T09:47:02.178Z,12.02
2022-09-29T09:56:23.426Z,12.50
2022-09-29T09:59:12.292Z,11.83
2022-09-29T10:01:40.258Z,12.93
2022-09-29T10:04:12.501Z,12.75
2022-09-29T10:09:50.116Z,13.62
2022-09-29T10:12:17.499Z,13.93
2022-09-29T10:14:52.962Z,14.35
2022-09-29T10:17:23.688Z,14.56
2022-09-29T10:20:02.153Z,14.50
2022-09-29T10:22:30.438Z,15.41
2022-09-29T10:25:07.825Z,15.87
2022-09-29T10:35:19.685Z,15.40
2022-09-29T10:38:33.686Z,16.13
2022-09-29T10:48:51.839Z,16.90
2022-09-29T10:52:36.610Z,17.34
2022-09-29T10:59:05.731Z,17.21
2022-09-29T11:01:47.494Z,17.89
2022-09-29T11:04:31.379Z,18.02
2022-09-29T11:07:44.828Z,17.96
2022-09-29T11:10:55.183Z,17.82
2022-09-29T11:13:36.954Z,16.98
2022-09-29T11:16:16.339Z,16.92
2022-09-29T11:18:52.148Z,17.75
2022-09-29T11:21:57.766Z,17.21
2022-09-29T11:24:35.088Z,18.00
2022-09-29T11:27:16.639Z,17.33
2022-09-29T11:29:50.319Z,18.40
2022-09-29T11:32:41.940Z,18.40
2022-09-29T11:45:04.794Z,18.61
2022-09-29T11:48:24.080Z,18.29
2022-09-29T11:51:01.664Z,19.17
2022-09-29T11:54:05.191Z,18.63
2022-09-29T11:56:49.796Z,19.35
2022-09-29T12:00:27.624Z,18.98
2022-09-29T12:03:19.137Z,19.69
2022-09-29T12:05:59.610Z,19.63
2022-09-29T12:08:42.809Z,19.53
2022-09-29T12:11:42.088Z,19.53
2022-09-29T12:14:15.484Z,19.52
2022-09-29T12:16:50.207Z,19.52
2022-09-29T12:19:20.318Z,19.68
2022-09-29T12:21:50.193Z,19.83
2022-09-29T12:24:20.798Z,19.84
2022-09-29T12:26:50.566Z,19.77
2022-09-29T12:29:31.102Z,19.93
2022-09-29T12:32:52.133Z,19.57
2022-09-29T12:41:25.006Z,18.63
2022-09-29T12:43:59.649Z,18.41
2022-09-29T12:46:32.988Z,17.74
2022-09-29T12:49:06.858Z,18.04
2022-09-29T12:52:13.862Z,18.09
2022-09-29T12:58:40.359Z,17.55
2022-09-29T13:04:48.047Z,15.96
2022-09-29T13:08:00.465Z,15.69
2022-09-29T13:11:22.775Z,15.55
2022-09-29T13:14:59.970Z,16.26
2022-09-29T13:28:10.950Z,16.10
2022-09-29T13:45:35.352Z,16.19
2022-09-29T14:09:50.395Z,18.26
2022-09-29T14:12:29.200Z,18.24
2022-09-29T14:15:20.817Z,18.20
2022-09-29T14:20:38.388Z,16.50
2022-09-29T14:26:51.848Z,16.10
2022-09-29T14:33:42.945Z,16.17
2022-09-29T14:36:05.710Z,15.45
2022-09-29T14:39:14.493Z,14.93
2022-09-29T14:42:05.854Z,14.32
2022-09-29T15:03:55.940Z,14.62
2022-09-29T15:06:59.706Z,13.31
2022-09-29T15:10:12.183Z,13.27
2022-09-29T15:15:55.859Z,14.37
2022-09-29T15:19:18.643Z,13.77
2022-09-29T15:22:16.408Z,13.38
2022-09-29T15:25:05.871Z,13.86
2022-09-29T15:27:48.057Z,13.22
2022-09-29T15:30:21.916Z,13.60
2022-09-29T15:33:20.792Z,13.34
2022-09-29T15:36:01.446Z,13.40
2022-09-29T15:38:35.745Z,12.55
2022-09-29T15:41:29.182Z,12.53
2022-09-29T15:44:17.177Z,12.59
2022-09-29T15:46:49.093Z,13.35
2022-09-29T15:49:30.655Z,12.72
2022-09-29T15:52:24.206Z,13.76
2022-09-29T15:55:18.069Z,13.52
2022-09-29T15:58:32.469Z,13.42
2022-09-29T16:01:16.833Z,12.83
2022-09-29T16:04:03.733Z,12.90
2022-09-29T16:09:29.523Z,14.38
2022-09-29T16:15:10.568Z,13.18
2022-09-29T16:17:42.771Z,14.41
2022-09-29T16:20:20.768Z,14.42
2022-09-29T16:23:04.781Z,13.87
2022-09-29T16:25:47.859Z,14.03
2022-09-29T16:28:34.243Z,13.96
2022-09-29T16:31:06.028Z,14.37
2022-09-29T16:33:46.069Z,13.82
2022-09-29T16:36:22.626Z,13.73
2022-09-29T16:39:03.741Z,14.16
2022-09-29T16:42:06.756Z,13.33
2022-09-29T16:44:35.991Z,13.57
2022-09-29T16:47:17.213Z,13.52
2022-09-29T17:02:53.747Z,13.61
2022-09-29T17:08:34.181Z,12.36
2022-09-29T17:11:06.298Z,13.12
2022-09-29T17:13:40.422Z,13.49
2022-09-29T17:16:19.442Z,12.45
2022-09-29T17:19:01.823Z,12.91
2022-09-29T17:28:32.138Z,12.74
2022-09-29T17:31:41.431Z,13.19
2022-09-29T17:34:08.442Z,12.39
2022-09-29T17:36:59.823Z,13.09
2022-09-29T17:43:59.299Z,12.89
2022-09-29T17:47:37.313Z,12.79
2022-09-29T17:54:09.968Z,11.28
2022-09-29T18:00:27.825Z,12.36
2022-09-29T18:24:10.173Z,11.53
2022-09-29T18:33:32.136Z,10.86
2022-09-29T18:36:43.277Z,12.05
2022-09-29T18:45:55.861Z,11.91
2022-09-29T18:56:22.972Z,10.86
2022-09-29T18:58:58.039Z,11.45
2022-09-29T19:01:31.256Z,11.15
2022-09-29T19:04:00.523Z,11.59
2022-09-29T19:06:31.276Z,11.23
2022-09-29T19:09:13.334Z,10.81
2022-09-29T19:11:58.234Z,10.39
2022-09-29T19:14:41.646Z,11.09
2022-09-29T19:17:15.317Z,11.01
2022-09-29T19:20:03.049Z,11.62
2022-09-29T19:22:44.652Z,11.37
2022-09-29T19:25:19.719Z,10.50
2022-09-29T19:28:40.840Z,10.44
2022-09-29T19:34:35.248Z,10.38
2022-09-29T19:37:07.017Z,11.10
2022-09-29T19:39:47.069Z,11.36
2022-09-29T19:42:20.392Z,10.22
2022-09-29T19:44:52.904Z,11.50
2022-09-29T19:47:21.223Z,11.47
2022-09-29T19:49:51.172Z,11.18
2022-09-29T19:52:18.110Z,10.36
2022-09-29T19:54:49.395Z,10.28
2022-09-29T19:57:25.974Z,11.47
2022-09-29T19:59:55.993Z,10.83
2022-09-29T20:03:02.692Z,10.11
2022-09-29T20:06:20.210Z,10.32
2022-09-29T20:12:03.465Z,10.54
2022-09-29T20:14:46.290Z,11.18
2022-09-29T20:27:57.818Z,11.31
2022-09-29T20:33:48.449Z,11.21
2022-09-29T20:36:30.863Z,10.97
2022-09-29T20:39:13.819Z,10.51
2022-09-29T20:42:10.549Z,9.94
2022-09-29T20:44:54.387Z,10.08
2022-09-29T20:47:32.310Z,10.00
2022-09-29T20:50:03.793Z,10.73
2022-09-29T20:52:33.455Z,11.11
2022-09-29T20:55:00.355Z,10.20
2022-09-29T20:57:30.091Z,9.96
2022-09-29T21:00:13.460Z,10.10
2022-09-29T21:05:40.898Z,10.39
2022-09-29T21:08:28.464Z,9.94
2022-09-29T21:11:06.890Z,11.27
2022-09-29T21:13:43.755Z,10.03
2022-09-29T21:16:20.623Z,11.02
2022-09-29T21:19:01.814Z,10.16
2022-09-29T21:21:32.330Z,11.40
2022-09-29T21:24:07.323Z,10.22
2022-09-29T21:26:50.232Z,10.95
2022-09-29T21:29:29.737Z,10.21
2022-09-29T21:32:07.800Z,11.41
2022-09-29T21:34:41.822Z,10.29
2022-09-29T21:37:13.592Z,11.38
2022-09-29T21:39:46.686Z,10.63
2022-09-29T21:42:20.521Z,10.71
2022-09-29T21:44:49.844Z,10.93
2022-09-29T21:47:19.902Z,11.16
2022-09-29T21:49:49.343Z,10.89
2022-09-29T21:52:28.881Z,10.01
2022-09-29T21:54:55.945Z,10.90
2022-09-29T21:57:24.083Z,11.16
2022-09-29T21:59:50.972Z,10.64
2022-09-29T22:02:21.893Z,9.96
2022-09-29T22:05:06.114Z,11.09
2022-09-29T22:07:34.748Z,9.81
2022-09-29T22:10:01.853Z,11.04
2022-09-29T22:12:35.776Z,10.27
2022-09-29T22:15:07.880Z,9.63
2022-09-29T22:17:36.538Z,9.87
2022-09-29T22:20:08.396Z,10.56
2022-09-29T22:22:35.294Z,9.52
2022-09-29T22:25:08.234Z,9.56
2022-09-29T22:27:40.822Z,9.35
2022-09-29T22:30:09.914Z,10.13
2022-09-29T22:32:54.844Z,9.58
2022-09-29T22:35:25.235Z,10.52
2022-09-29T22:37:53.577Z,9.39
2022-09-29T22:40:25.883Z,10.40
2022-09-29T22:43:02.787Z,10.50
2022-09-29T22:45:35.344Z,10.43
2022-09-29T22:48:05.460Z,9.24
2022-09-29T22:50:37.711Z,9.39
2022-09-29T22:53:06.192Z,9.89
2022-09-29T22:55:37.379Z,9.90
2022-09-29T22:58:06.828Z,9.57
2022-09-29T23:00:38.311Z,9.06
2022-09-29T23:03:14.622Z,10.13
2022-09-29T23:05:47.651Z,9.34
2022-09-29T23:08:17.457Z,9.11
2022-09-29T23:10:48.189Z,10.08
2022-09-29T23:13:19.064Z,9.85
2022-09-29T23:15:46.032Z,9.05
2022-09-29T23:18:24.003Z,9.11
2022-09-29T23:20:58.397Z,9.38
2022-09-29T23:23:25.733Z,8.54
2022-09-29T23:25:52.771Z,8.67
2022-09-29T23:28:22.217Z,8.99
2022-09-29T23:30:51.392Z,8.92
2022-09-29T23:33:19.830Z,8.58
2022-09-29T23:35:46.735Z,8.76
2022-09-29T23:38:18.593Z,8.36
2022-09-29T23:40:47.250Z,8.40
2022-09-29T23:43:15.924Z,9.51
2022-09-29T23:45:49.311Z,8.96
2022-09-29T23:48:23.273Z,8.09
2022-09-29T23:51:00.100Z,8.89
2022-09-29T23:53:27.306Z,8.53
2022-09-29T23:56:06.524Z,8.85
2022-09-29T23:58:36.439Z,8.09
